createdAt,value
2023-01-19T00:00:54.541Z,18.20
2023-01-19T00:03:21.750Z,18.20
2023-01-19T00:05:48.918Z,18.20
2023-01-19T00:08:15.920Z,18.20
2023-01-19T00:10:51.134Z,18.20
2023-01-19T00:13:18.646Z,18.20
2023-01-19T00:15:45.551Z,18.20
2023-01-19T00:18:12.417Z,18.20
2023-01-19T00:20:40.066Z,18.10
2023-01-19T00:23:08.081Z,18.10
2023-01-19T00:25:36.162Z,18.10
2023-01-19T00:28:03.205Z,18.10
2023-01-19T00:30:30.417Z,18.10
2023-01-19T00:32:57.382Z,18.00
2023-01-19T00:35:24.338Z,18.00
2023-01-19T00:37:51.174Z,18.00
2023-01-19T00:40:18.323Z,18.00
2023-01-19T00:42:45.763Z,18.00
2023-01-19T00:45:14.999Z,18.00
2023-01-19T00:47:42.045Z,18.00
2023-01-19T00:50:13.137Z,18.00
2023-01-19T00:52:44.176Z,18.00
2023-01-19T00:55:13.302Z,18.00
2023-01-19T00:57:40.806Z,18.00
2023-01-19T01:00:12.789Z,18.00
2023-01-19T01:02:41.348Z,17.90
2023-01-19T01:05:09.260Z,17.90
2023-01-19T01:07:45.159Z,17.90
2023-01-19T01:10:15.901Z,17.80
2023-01-19T01:12:54.938Z,17.80
2023-01-19T01:15:26.285Z,17.80
2023-01-19T01:17:53.197Z,17.80
2023-01-19T01:20:27.086Z,17.80
2023-01-19T01:22:54.889Z,17.80
2023-01-19T01:25:23.630Z,17.80
2023-01-19T01:27:50.952Z,17.80
2023-01-19T01:30:18.230Z,17.80
2023-01-19T01:32:45.114Z,17.80
2023-01-19T01:35:13.289Z,17.80
2023-01-19T01:37:40.686Z,17.80
2023-01-19T01:40:10.315Z,17.80
2023-01-19T01:42:37.209Z,17.80
2023-01-19T01:45:21.969Z,17.80
2023-01-19T01:47:49.841Z,17.80
2023-01-19T01:50:23.953Z,17.80
2023-01-19T01:53:06.459Z,17.80
2023-01-19T01:55:39.712Z,17.80
2023-01-19T01:58:09.529Z,17.80
2023-01-19T02:00:56.317Z,17.80
2023-01-19T02:03:24.785Z,17.70
2023-01-19T02:05:53.186Z,17.70
2023-01-19T02:08:46.949Z,17.60
2023-01-19T02:11:32.510Z,17.60
2023-01-19T02:13:59.423Z,17.60
2023-01-19T02:16:26.272Z,17.50
2023-01-19T02:18:53.165Z,17.50
2023-01-19T02:21:26.175Z,17.50
2023-01-19T02:23:55.372Z,17.50
2023-01-19T02:26:28.372Z,17.50
2023-01-19T02:29:08.765Z,17.50
2023-01-19T02:31:37.379Z,17.50
2023-01-19T02:34:06.076Z,17.50
2023-01-19T02:36:42.517Z,17.50
2023-01-19T02:39:11.087Z,17.50
2023-01-19T02:41:42.538Z,17.50
2023-01-19T02:44:11.004Z,17.50
2023-01-19T02:46:38.579Z,17.50
2023-01-19T02:49:05.441Z,17.50
2023-01-19T02:51:32.796Z,17.40
2023-01-19T02:54:25.360Z,17.40
2023-01-19T02:57:12.989Z,17.30
2023-01-19T03:00:10.587Z,17.30
2023-01-19T03:02:59.484Z,17.20
2023-01-19T03:05:44.992Z,17.30
2023-01-19T03:08:29.926Z,17.30
2023-01-19T03:11:10.195Z,17.30
2023-01-19T03:14:00.965Z,17.40
2023-01-19T03:16:49.576Z,17.40
2023-01-19T03:19:27.185Z,17.40
2023-01-19T03:22:00.882Z,17.40
2023-01-19T03:24:31.537Z,17.40
2023-01-19T03:27:09.410Z,17.50
2023-01-19T03:29:38.104Z,17.50
2023-01-19T03:32:10.458Z,17.50
2023-01-19T03:34:39.122Z,17.50
2023-01-19T03:37:10.337Z,17.50
2023-01-19T03:39:37.579Z,17.50
2023-01-19T03:42:11.194Z,17.50
2023-01-19T03:44:40.312Z,17.50
2023-01-19T03:47:09.823Z,17.40
2023-01-19T03:49:38.392Z,17.40
2023-01-19T03:52:05.947Z,17.50
2023-01-19T03:54:32.815Z,17.40
2023-01-19T03:56:59.732Z,17.40
2023-01-19T03:59:26.876Z,17.40
2023-01-19T04:01:53.809Z,17.40
2023-01-19T04:04:20.668Z,17.40
2023-01-19T04:06:47.547Z,17.40
2023-01-19T04:09:14.312Z,17.40
2023-01-19T04:11:41.108Z,17.40
2023-01-19T04:14:07.889Z,17.40
2023-01-19T04:16:35.122Z,17.40
2023-01-19T04:19:01.838Z,17.40
2023-01-19T04:21:28.676Z,17.40
2023-01-19T04:23:55.402Z,17.40
2023-01-19T04:26:22.382Z,17.40
2023-01-19T04:28:49.281Z,17.40
2023-01-19T04:31:16.175Z,17.40
2023-01-19T04:33:42.921Z,17.40
2023-01-19T04:36:09.864Z,17.40
2023-01-19T04:38:36.740Z,17.40
2023-01-19T04:41:03.584Z,17.40
2023-01-19T04:43:30.363Z,17.40
2023-01-19T04:45:57.247Z,17.40
2023-01-19T04:48:24.034Z,17.40
2023-01-19T04:50:51.753Z,17.40
2023-01-19T04:53:18.588Z,17.40
2023-01-19T04:55:46.586Z,17.40
2023-01-19T04:58:13.654Z,17.40
2023-01-19T05:00:40.557Z,17.30
2023-01-19T05:03:07.444Z,17.30
2023-01-19T05:05:34.456Z,17.40
2023-01-19T05:08:01.201Z,17.40
2023-01-19T05:10:28.282Z,17.40
2023-01-19T05:12:55.493Z,17.30
2023-01-19T05:15:22.595Z,17.30
2023-01-19T05:17:49.506Z,17.30
2023-01-19T05:20:17.455Z,17.30
2023-01-19T05:22:50.547Z,17.30
2023-01-19T05:25:17.760Z,17.40
2023-01-19T05:27:44.759Z,17.40
2023-01-19T05:30:13.374Z,17.40
2023-01-19T05:32:40.433Z,17.30
2023-01-19T05:35:07.961Z,17.30
2023-01-19T05:37:34.842Z,17.30
2023-01-19T05:40:01.776Z,17.40
2023-01-19T05:42:29.539Z,17.30
2023-01-19T05:44:57.169Z,17.30
2023-01-19T05:47:24.055Z,17.30
2023-01-19T05:49:50.840Z,17.30
2023-01-19T05:52:17.766Z,17.30
2023-01-19T05:54:44.797Z,17.30
2023-01-19T05:57:11.960Z,17.30
2023-01-19T05:59:38.708Z,17.30
2023-01-19T06:02:06.269Z,17.20
2023-01-19T06:04:33.063Z,17.20
2023-01-19T06:06:59.873Z,17.10
2023-01-19T06:09:26.623Z,17.10
2023-01-19T06:11:55.703Z,17.00
2023-01-19T06:14:22.484Z,17.00
2023-01-19T06:16:49.310Z,17.00
2023-01-19T06:19:16.175Z,17.00
2023-01-19T06:21:49.345Z,17.00
2023-01-19T06:24:16.476Z,17.00
2023-01-19T06:26:46.304Z,17.00
2023-01-19T06:29:13.791Z,17.00
2023-01-19T06:31:41.780Z,17.00
2023-01-19T06:34:09.215Z,17.00
2023-01-19T06:36:36.698Z,17.00
2023-01-19T06:39:05.955Z,17.00
2023-01-19T06:41:33.495Z,17.00
2023-01-19T06:44:00.552Z,16.90
2023-01-19T06:46:27.782Z,16.90
2023-01-19T06:48:54.813Z,16.90
2023-01-19T06:51:22.883Z,16.90
2023-01-19T06:53:50.162Z,16.90
2023-01-19T06:56:17.021Z,16.90
2023-01-19T06:58:44.456Z,16.90
2023-01-19T07:01:11.435Z,16.90
2023-01-19T07:03:38.647Z,16.90
2023-01-19T07:06:08.925Z,16.90
2023-01-19T07:08:36.725Z,16.90
2023-01-19T07:11:24.658Z,16.90
2023-01-19T07:13:55.613Z,16.90
2023-01-19T07:16:23.938Z,16.90
2023-01-19T07:18:50.987Z,16.90
2023-01-19T07:21:18.123Z,16.90
2023-01-19T07:23:47.796Z,16.90
2023-01-19T07:26:15.381Z,16.90
2023-01-19T07:28:42.367Z,16.90
2023-01-19T07:31:09.651Z,16.80
2023-01-19T07:33:36.554Z,16.90
2023-01-19T07:36:03.787Z,16.80
2023-01-19T07:38:30.613Z,16.80
2023-01-19T07:41:09.115Z,16.80
2023-01-19T07:43:35.943Z,16.80
2023-01-19T07:46:06.016Z,16.80
2023-01-19T07:48:32.966Z,16.80
2023-01-19T07:51:05.649Z,16.80
2023-01-19T07:53:32.977Z,16.80
2023-01-19T07:55:59.817Z,16.80
2023-01-19T07:58:26.896Z,16.80
2023-01-19T08:00:53.979Z,16.80
2023-01-19T08:03:21.091Z,16.80
2023-01-19T08:05:53.045Z,16.80
2023-01-19T08:08:20.623Z,16.80
2023-01-19T08:10:50.726Z,16.80
2023-01-19T08:13:18.676Z,16.80
2023-01-19T08:15:48.769Z,16.80
2023-01-19T08:18:15.711Z,16.70
2023-01-19T08:20:42.503Z,16.80
2023-01-19T08:23:09.816Z,16.70
2023-01-19T08:25:39.644Z,16.70
2023-01-19T08:28:07.194Z,16.70
2023-01-19T08:30:34.730Z,16.70
2023-01-19T08:33:05.014Z,16.70
2023-01-19T08:35:33.382Z,16.70
2023-01-19T08:38:01.730Z,16.70
2023-01-19T08:40:29.936Z,16.70
2023-01-19T08:43:03.636Z,16.70
2023-01-19T08:45:31.111Z,16.70
2023-01-19T08:47:59.152Z,16.70
2023-01-19T08:50:27.172Z,16.70
2023-01-19T08:52:57.520Z,16.70
2023-01-19T08:55:24.945Z,16.70
2023-01-19T08:57:57.029Z,16.70
2023-01-19T09:00:25.207Z,16.70
2023-01-19T09:02:52.109Z,16.70
2023-01-19T09:05:19.133Z,16.70
2023-01-19T09:07:48.128Z,16.70
2023-01-19T09:10:16.027Z,16.70
2023-01-19T09:12:44.083Z,16.70
2023-01-19T09:15:13.767Z,16.80
2023-01-19T09:17:43.810Z,16.70
2023-01-19T09:20:11.092Z,16.70
2023-01-19T09:22:39.609Z,16.70
2023-01-19T09:25:07.903Z,16.80
2023-01-19T09:27:35.056Z,16.80
2023-01-19T09:30:02.737Z,16.80
2023-01-19T09:32:29.667Z,16.80
2023-01-19T09:34:56.822Z,16.80
2023-01-19T09:37:23.673Z,16.80
2023-01-19T09:39:50.556Z,16.80
2023-01-19T09:42:27.413Z,17.00
2023-01-19T09:44:54.591Z,17.10
2023-01-19T09:47:28.363Z,17.20
2023-01-19T09:50:26.149Z,17.30
2023-01-19T09:53:04.462Z,17.40
2023-01-19T09:55:31.522Z,17.40
2023-01-19T09:57:58.824Z,17.40
2023-01-19T10:00:28.024Z,17.50
2023-01-19T10:03:16.617Z,17.50
2023-01-19T10:05:57.927Z,17.50
2023-01-19T10:08:56.999Z,17.50
2023-01-19T10:11:51.507Z,17.60
2023-01-19T10:14:40.090Z,17.60
2023-01-19T10:17:15.294Z,17.60
2023-01-19T10:19:47.567Z,17.70
2023-01-19T10:22:22.213Z,17.70
2023-01-19T10:24:57.084Z,17.80
2023-01-19T10:27:28.561Z,17.80
2023-01-19T10:29:56.514Z,17.80
2023-01-19T10:32:26.268Z,17.80
2023-01-19T10:34:54.976Z,17.80
2023-01-19T10:37:27.970Z,17.80
2023-01-19T10:40:02.331Z,17.80
2023-01-19T10:42:30.928Z,17.90
2023-01-19T10:44:57.855Z,17.90
2023-01-19T10:47:33.505Z,17.90
2023-01-19T10:50:01.179Z,18.00
2023-01-19T10:52:33.371Z,18.00
2023-01-19T10:55:02.618Z,18.00
2023-01-19T10:57:34.542Z,18.00
2023-01-19T11:00:01.427Z,18.00
2023-01-19T11:02:30.448Z,18.00
2023-01-19T11:04:59.837Z,18.00
2023-01-19T11:07:26.594Z,18.00
2023-01-19T11:10:11.692Z,18.00
2023-01-19T11:13:01.390Z,18.00
2023-01-19T11:15:32.093Z,18.00
2023-01-19T11:17:59.924Z,18.10
2023-01-19T11:20:43.822Z,18.10
2023-01-19T11:23:27.449Z,18.10
2023-01-19T11:25:58.096Z,18.20
2023-01-19T11:28:32.667Z,18.10
2023-01-19T11:31:02.102Z,18.10
2023-01-19T11:33:43.513Z,18.10
2023-01-19T11:36:21.330Z,18.10
2023-01-19T11:38:51.214Z,18.10
2023-01-19T11:41:27.444Z,18.20
2023-01-19T11:43:57.945Z,18.20
2023-01-19T11:46:32.884Z,18.20
2023-01-19T11:49:04.574Z,18.30
2023-01-19T11:51:39.288Z,18.30
2023-01-19T11:54:20.656Z,18.30
2023-01-19T11:56:49.063Z,18.20
2023-01-19T11:59:15.908Z,18.20
2023-01-19T12:01:56.198Z,18.20
2023-01-19T12:04:33.681Z,18.20
2023-01-19T12:07:07.497Z,18.20
2023-01-19T12:09:42.730Z,18.30
2023-01-19T12:12:29.767Z,18.30
2023-01-19T12:15:08.641Z,18.30
2023-01-19T12:17:40.563Z,18.30
2023-01-19T12:20:25.182Z,18.30
2023-01-19T12:23:30.718Z,18.40
2023-01-19T12:26:16.031Z,18.40
2023-01-19T12:28:49.810Z,18.50
2023-01-19T12:31:18.656Z,18.50
2023-01-19T12:33:45.981Z,18.60
2023-01-19T12:36:35.372Z,18.70
2023-01-19T12:39:08.153Z,18.90
2023-01-19T12:41:37.234Z,18.90
2023-01-19T12:44:19.207Z,18.90
2023-01-19T12:47:06.366Z,19.00
2023-01-19T12:49:50.411Z,19.10
2023-01-19T12:52:28.248Z,19.10
2023-01-19T12:55:19.784Z,19.10
2023-01-19T12:57:52.657Z,19.20
2023-01-19T13:00:25.936Z,19.10
2023-01-19T13:03:19.047Z,19.00
2023-01-19T13:05:55.104Z,18.90
2023-01-19T13:09:01.033Z,18.90
2023-01-19T13:11:33.272Z,18.90
2023-01-19T13:14:01.297Z,18.90
2023-01-19T13:16:28.126Z,18.90
2023-01-19T13:18:58.605Z,18.90
2023-01-19T13:21:44.807Z,18.90
2023-01-19T13:24:17.796Z,18.90
2023-01-19T13:26:50.693Z,18.90
2023-01-19T13:29:34.088Z,18.90
2023-01-19T13:32:11.694Z,18.90
2023-01-19T13:34:45.455Z,18.90
2023-01-19T13:37:26.132Z,19.00
2023-01-19T13:39:54.707Z,19.10
2023-01-19T13:42:28.308Z,19.00
2023-01-19T13:44:58.892Z,19.00
2023-01-19T13:47:48.017Z,19.00
2023-01-19T13:50:33.291Z,18.90
2023-01-19T13:53:01.629Z,18.90
2023-01-19T13:55:30.940Z,18.90
2023-01-19T13:57:58.460Z,18.90
2023-01-19T14:00:27.753Z,18.90
2023-01-19T14:03:21.311Z,18.90
2023-01-19T14:05:52.147Z,18.90
2023-01-19T14:08:19.846Z,18.90
2023-01-19T14:11:00.209Z,18.90
2023-01-19T14:13:37.450Z,19.10
2023-01-19T14:16:15.604Z,19.10
2023-01-19T14:18:43.064Z,19.10
2023-01-19T14:21:15.191Z,19.10
2023-01-19T14:23:52.277Z,19.10
2023-01-19T14:26:37.660Z,19.10
2023-01-19T14:29:28.317Z,19.10
2023-01-19T14:32:01.194Z,19.20
2023-01-19T14:34:47.977Z,19.20
2023-01-19T14:37:28.466Z,19.20
2023-01-19T14:40:19.935Z,19.10
2023-01-19T14:43:13.521Z,19.20
2023-01-19T14:45:46.438Z,19.20
2023-01-19T14:48:18.385Z,19.10
2023-01-19T14:51:01.924Z,19.20
2023-01-19T14:53:36.657Z,19.20
2023-01-19T14:56:05.654Z,19.20
2023-01-19T14:58:36.277Z,19.10
2023-01-19T15:01:04.621Z,19.10
2023-01-19T15:04:35.553Z,19.10
2023-01-19T15:07:02.640Z,19.20
2023-01-19T15:09:29.471Z,19.10
2023-01-19T15:11:56.402Z,19.10
2023-01-19T15:14:23.343Z,19.10
2023-01-19T15:16:50.510Z,19.10
2023-01-19T15:19:17.883Z,19.10
2023-01-19T15:21:46.906Z,19.10
2023-01-19T15:24:41.972Z,19.10
2023-01-19T15:27:13.796Z,19.10
2023-01-19T15:29:41.055Z,19.10
2023-01-19T15:32:15.745Z,19.10
2023-01-19T15:34:43.037Z,19.10
2023-01-19T15:37:09.948Z,19.10
2023-01-19T15:39:36.851Z,19.20
2023-01-19T15:42:03.805Z,19.20
2023-01-19T15:44:30.800Z,19.20
2023-01-19T15:46:57.644Z,19.20
2023-01-19T15:49:24.731Z,19.20
2023-01-19T15:51:51.744Z,19.20
2023-01-19T15:54:19.009Z,19.20
2023-01-19T15:56:46.165Z,19.20
2023-01-19T15:59:13.040Z,19.20
2023-01-19T16:01:55.021Z,19.20
2023-01-19T16:04:22.042Z,19.10
2023-01-19T16:06:49.976Z,19.10
2023-01-19T16:09:19.958Z,19.10
2023-01-19T16:11:46.979Z,19.40
2023-01-19T16:14:15.087Z,19.40
2023-01-19T16:16:44.884Z,19.50
2023-01-19T16:19:14.762Z,19.50
2023-01-19T16:21:42.824Z,19.50
2023-01-19T16:24:09.714Z,19.50
2023-01-19T16:26:36.759Z,19.60
2023-01-19T16:29:08.760Z,19.60
2023-01-19T16:31:39.311Z,19.70
2023-01-19T16:34:06.750Z,19.70
2023-01-19T16:36:36.143Z,19.70
2023-01-19T16:39:10.438Z,19.70
2023-01-19T16:41:37.263Z,19.80
2023-01-19T16:44:04.633Z,19.80
2023-01-19T16:46:35.032Z,19.90
2023-01-19T16:49:14.547Z,19.90
2023-01-19T16:51:41.531Z,19.90
2023-01-19T16:54:19.989Z,19.90
2023-01-19T16:56:47.258Z,19.90
2023-01-19T16:59:16.273Z,19.90
2023-01-19T17:01:45.137Z,20.00
2023-01-19T17:04:13.486Z,20.00
2023-01-19T17:06:40.772Z,20.00
2023-01-19T17:09:09.434Z,20.00
2023-01-19T17:11:36.611Z,20.00
2023-01-19T17:14:06.510Z,20.00
2023-01-19T17:16:34.517Z,20.10
2023-01-19T17:19:03.565Z,20.00
2023-01-19T17:21:30.661Z,20.00
2023-01-19T17:23:58.275Z,20.00
2023-01-19T17:26:28.233Z,20.00
2023-01-19T17:29:13.220Z,19.90
2023-01-19T17:31:43.572Z,19.90
2023-01-19T17:34:10.520Z,19.90
2023-01-19T17:36:37.964Z,19.90
2023-01-19T17:39:07.254Z,19.90
2023-01-19T17:41:35.485Z,19.90
2023-01-19T17:44:04.009Z,19.90
2023-01-19T17:46:31.605Z,19.90
2023-01-19T17:49:01.718Z,19.90
2023-01-19T17:51:29.707Z,19.90
2023-01-19T17:53:57.363Z,19.90
2023-01-19T17:56:30.228Z,19.90
2023-01-19T17:58:58.506Z,19.90
2023-01-19T18:01:27.901Z,19.90
2023-01-19T18:03:55.572Z,19.90
2023-01-19T18:06:23.065Z,19.90
2023-01-19T18:08:50.440Z,19.90
2023-01-19T18:11:20.036Z,19.90
2023-01-19T18:13:48.496Z,19.80
2023-01-19T18:16:18.504Z,19.80
2023-01-19T18:18:45.384Z,19.80
2023-01-19T18:21:14.086Z,19.80
2023-01-19T18:23:43.464Z,19.80
2023-01-19T18:26:12.846Z,19.70
2023-01-19T18:28:39.787Z,19.70
2023-01-19T18:31:08.569Z,19.70
2023-01-19T18:33:36.096Z,19.70
2023-01-19T18:36:03.842Z,19.70
2023-01-19T18:38:30.629Z,19.70
2023-01-19T18:41:10.468Z,19.70
2023-01-19T18:43:37.728Z,19.70
2023-01-19T18:46:05.288Z,19.60
2023-01-19T18:48:32.237Z,19.60
2023-01-19T18:51:03.361Z,19.60
2023-01-19T18:53:31.697Z,19.50
2023-01-19T18:55:59.872Z,19.50
2023-01-19T18:58:29.294Z,19.50
2023-01-19T19:00:56.744Z,19.50
2023-01-19T19:03:23.611Z,19.50
2023-01-19T19:05:50.786Z,19.50
2023-01-19T19:08:17.980Z,19.50
2023-01-19T19:10:45.283Z,19.40
2023-01-19T19:13:13.749Z,19.40
2023-01-19T19:15:40.580Z,19.40
2023-01-19T19:18:09.014Z,19.40
2023-01-19T19:20:39.432Z,19.40
2023-01-19T19:23:06.397Z,19.30
2023-01-19T19:25:34.038Z,19.30
2023-01-19T19:28:00.883Z,19.30
2023-01-19T19:30:27.782Z,19.20
2023-01-19T19:32:59.846Z,19.20
2023-01-19T19:35:26.898Z,19.30
2023-01-19T19:37:57.399Z,19.30
2023-01-19T19:40:26.399Z,19.30
2023-01-19T19:42:53.266Z,19.30
2023-01-19T19:45:20.166Z,19.30
2023-01-19T19:47:47.047Z,19.30
2023-01-19T19:50:14.411Z,19.40
2023-01-19T19:52:42.064Z,19.50
2023-01-19T19:55:10.627Z,19.50
2023-01-19T19:57:37.820Z,19.40
2023-01-19T20:00:05.626Z,19.40
2023-01-19T20:02:36.789Z,19.40
2023-01-19T20:05:04.659Z,19.30
2023-01-19T20:07:31.729Z,19.30
2023-01-19T20:09:58.906Z,19.40
2023-01-19T20:12:25.670Z,19.40
2023-01-19T20:14:52.652Z,19.40
2023-01-19T20:17:20.713Z,19.40
2023-01-19T20:19:48.930Z,19.40
2023-01-19T20:22:16.037Z,19.40
2023-01-19T20:24:42.935Z,19.40
2023-01-19T20:27:09.833Z,19.40
2023-01-19T20:29:36.670Z,19.50
2023-01-19T20:32:03.865Z,19.50
2023-01-19T20:34:33.667Z,19.50
2023-01-19T20:37:01.659Z,19.50
2023-01-19T20:39:30.254Z,19.50
2023-01-19T20:41:57.198Z,19.50
2023-01-19T20:44:25.569Z,19.50
2023-01-19T20:46:53.936Z,19.50
2023-01-19T20:49:21.189Z,19.50
2023-01-19T20:51:48.485Z,19.50
2023-01-19T20:54:18.268Z,19.60
